createdAt,value
2018-01-29T00:01:36.269Z,1.20
2018-01-29T00:04:03.186Z,1.20
2018-01-29T00:06:30.056Z,1.30
2018-01-29T00:08:56.987Z,1.60
2018-01-29T00:11:23.917Z,1.40
2018-01-29T00:13:50.842Z,1.40
2018-01-29T00:16:17.748Z,1.60
2018-01-29T00:18:44.608Z,1.60
2018-01-29T00:21:11.460Z,1.60
2018-01-29T00:23:38.349Z,1.90
2018-01-29T00:26:05.199Z,1.55
2018-01-29T00:28:32.126Z,1.55
2018-01-29T00:30:58.996Z,1.50
2018-01-29T00:33:25.877Z,1.50
2018-01-29T00:35:53.010Z,1.90
2018-01-29T00:38:19.884Z,1.60
2018-01-29T00:40:46.735Z,1.60
2018-01-29T00:43:13.652Z,1.70
2018-01-29T00:45:40.527Z,1.60
2018-01-29T00:48:08.450Z,1.60
2018-01-29T00:50:35.349Z,1.73
2018-01-29T00:53:02.240Z,1.70
2018-01-29T00:55:29.104Z,1.70
2018-01-29T00:57:56.283Z,1.60
2018-01-29T01:00:23.177Z,1.87
2018-01-29T01:02:50.069Z,2.62
2018-01-29T01:05:16.980Z,2.40
2018-01-29T01:07:43.877Z,2.50
2018-01-29T01:10:10.772Z,2.28
2018-01-29T01:12:37.619Z,2.50
2018-01-29T01:15:04.509Z,2.65
2018-01-29T01:17:31.372Z,2.80
2018-01-29T01:19:58.484Z,3.20
2018-01-29T01:22:25.396Z,2.80
2018-01-29T01:24:52.292Z,3.30
2018-01-29T01:27:19.153Z,3.20
2018-01-29T01:29:46.016Z,3.50
2018-01-29T01:32:12.942Z,3.60
2018-01-29T01:34:39.811Z,3.62
2018-01-29T01:37:06.660Z,4.20
2018-01-29T01:39:33.537Z,4.10
2018-01-29T01:42:00.426Z,4.65
2018-01-29T01:44:27.398Z,5.30
2018-01-29T01:46:54.284Z,5.40
2018-01-29T01:49:21.997Z,5.50
2018-01-29T01:51:48.880Z,6.00
2018-01-29T01:54:15.809Z,6.00
2018-01-29T01:56:42.719Z,5.80
2018-01-29T01:59:09.580Z,5.10
2018-01-29T02:01:36.491Z,5.25
2018-01-29T02:04:03.512Z,4.80
2018-01-29T02:06:30.349Z,4.70
2018-01-29T02:08:57.240Z,4.70
2018-01-29T02:11:24.084Z,4.40
2018-01-29T02:13:50.947Z,4.32
2018-01-29T02:16:17.796Z,4.50
2018-01-29T02:18:44.660Z,4.70
2018-01-29T02:21:11.549Z,4.78
2018-01-29T02:23:38.497Z,5.23
2018-01-29T02:26:05.394Z,5.63
2018-01-29T02:28:32.305Z,5.40
2018-01-29T02:30:59.197Z,6.28
2018-01-29T02:33:26.090Z,6.90
2018-01-29T02:35:53.018Z,6.90
2018-01-29T02:38:19.924Z,7.30
2018-01-29T02:40:46.813Z,7.30
2018-01-29T02:43:14.125Z,7.70
2018-01-29T02:45:41.008Z,7.43
2018-01-29T02:48:07.873Z,8.52
2018-01-29T02:50:34.745Z,8.10
2018-01-29T02:53:01.646Z,8.40
2018-01-29T02:55:28.538Z,8.13
2018-01-29T02:57:55.428Z,8.20
2018-01-29T03:00:22.321Z,8.43
2018-01-29T03:02:49.179Z,8.07
2018-01-29T03:05:16.101Z,8.00
2018-01-29T03:07:42.952Z,8.30
2018-01-29T03:10:09.850Z,7.70
2018-01-29T03:12:37.549Z,7.72
2018-01-29T03:15:04.440Z,7.50
2018-01-29T03:17:31.321Z,6.90
2018-01-29T03:19:58.180Z,7.00
2018-01-29T03:22:25.032Z,6.32
2018-01-29T03:24:51.916Z,5.90
2018-01-29T03:27:18.901Z,5.40
2018-01-29T03:29:45.786Z,5.03
2018-01-29T03:32:12.652Z,4.55
2018-01-29T03:34:39.504Z,4.35
2018-01-29T03:37:07.017Z,4.10
2018-01-29T03:39:33.930Z,4.10
2018-01-29T03:42:00.800Z,4.80
2018-01-29T03:44:27.974Z,4.90
2018-01-29T03:46:55.135Z,4.95
2018-01-29T03:49:21.991Z,4.80
2018-01-29T03:51:48.889Z,5.00
2018-01-29T03:54:15.803Z,5.20
2018-01-29T03:56:42.711Z,4.70
2018-01-29T03:59:09.600Z,4.47
2018-01-29T04:01:36.456Z,3.95
2018-01-29T04:04:03.337Z,3.93
2018-01-29T04:06:30.228Z,3.60
2018-01-29T04:08:57.121Z,3.30
2018-01-29T04:11:24.013Z,3.00
2018-01-29T04:13:50.994Z,2.80
2018-01-29T04:16:17.880Z,3.00
2018-01-29T04:18:44.740Z,2.80
2018-01-29T04:21:11.626Z,3.35
2018-01-29T04:23:38.492Z,3.60
2018-01-29T04:26:05.373Z,3.70
2018-01-29T04:28:32.329Z,3.45
2018-01-29T04:30:59.207Z,3.50
2018-01-29T04:33:26.080Z,3.83
2018-01-29T04:35:53.313Z,4.12
2018-01-29T04:38:20.217Z,3.70
2018-01-29T04:40:47.104Z,3.10
2018-01-29T04:43:13.988Z,3.45
2018-01-29T04:45:40.881Z,3.00
2018-01-29T04:48:07.785Z,3.40
2018-01-29T04:50:34.661Z,3.30
2018-01-29T04:53:01.558Z,3.30
2018-01-29T04:55:28.420Z,3.40
2018-01-29T04:57:55.296Z,3.20
2018-01-29T05:00:22.173Z,3.72
2018-01-29T05:02:49.417Z,3.78
2018-01-29T05:05:16.314Z,3.95
2018-01-29T05:07:43.223Z,3.60
2018-01-29T05:10:10.118Z,4.30
2018-01-29T05:12:37.060Z,4.00
2018-01-29T05:15:03.954Z,4.20
2018-01-29T05:17:30.820Z,4.18
2018-01-29T05:19:57.668Z,3.40
2018-01-29T05:22:24.554Z,3.00
2018-01-29T05:24:51.428Z,3.60
2018-01-29T05:27:18.419Z,3.03
2018-01-29T05:29:45.293Z,2.90
2018-01-29T05:32:12.156Z,3.30
2018-01-29T05:34:39.037Z,2.55
2018-01-29T05:37:05.937Z,2.40
2018-01-29T05:39:32.780Z,3.55
2018-01-29T05:41:59.640Z,2.20
2018-01-29T05:44:26.493Z,2.30
2018-01-29T05:46:53.417Z,2.42
2018-01-29T05:49:20.321Z,2.60
2018-01-29T05:51:47.257Z,2.53
2018-01-29T05:54:14.165Z,2.80
2018-01-29T05:56:41.693Z,2.40
2018-01-29T05:59:08.541Z,2.70
2018-01-29T06:01:35.421Z,2.60
2018-01-29T06:04:02.316Z,3.00
2018-01-29T06:06:29.217Z,3.10
2018-01-29T06:08:56.108Z,3.03
2018-01-29T06:11:23.268Z,3.80
2018-01-29T06:13:50.124Z,3.25
2018-01-29T06:16:16.995Z,3.70
2018-01-29T06:18:43.856Z,3.65
2018-01-29T06:21:10.717Z,3.33
2018-01-29T06:23:37.605Z,3.40
2018-01-29T06:26:04.460Z,3.00
2018-01-29T06:28:31.329Z,3.17
2018-01-29T06:30:58.181Z,2.67
2018-01-29T06:33:25.364Z,2.70
2018-01-29T06:35:52.521Z,2.50
2018-01-29T06:38:19.393Z,2.58
2018-01-29T06:40:46.312Z,2.60
2018-01-29T06:43:13.189Z,2.10
2018-01-29T06:45:40.409Z,2.05
2018-01-29T06:48:07.269Z,2.20
2018-01-29T06:50:34.502Z,2.22
2018-01-29T06:53:01.396Z,2.12
2018-01-29T06:55:28.265Z,2.35
2018-01-29T06:57:55.217Z,2.20
2018-01-29T07:00:22.107Z,1.90
2018-01-29T07:02:48.997Z,1.83
2018-01-29T07:05:15.871Z,1.87
2018-01-29T07:07:42.748Z,2.03
2018-01-29T07:10:09.673Z,2.37
2018-01-29T07:12:36.520Z,2.22
2018-01-29T07:15:03.753Z,2.10
2018-01-29T07:17:30.633Z,2.10
2018-01-29T07:19:57.508Z,2.20
2018-01-29T07:22:24.386Z,1.90
2018-01-29T07:24:51.278Z,2.00
2018-01-29T07:27:18.149Z,2.00
2018-01-29T07:29:45.058Z,1.80
2018-01-29T07:32:11.947Z,2.20
2018-01-29T07:34:38.811Z,1.90
2018-01-29T07:37:05.659Z,1.70
2018-01-29T07:39:32.802Z,2.20
2018-01-29T07:41:59.681Z,1.90
2018-01-29T07:44:26.569Z,2.40
2018-01-29T07:46:53.469Z,2.00
2018-01-29T07:49:20.329Z,2.00
2018-01-29T07:51:47.213Z,2.00
2018-01-29T07:54:15.001Z,1.62
2018-01-29T07:56:41.884Z,1.65
2018-01-29T07:59:08.774Z,2.00
2018-01-29T08:01:35.640Z,1.60
2018-01-29T08:04:02.534Z,1.50
2018-01-29T08:06:29.713Z,1.62
2018-01-29T08:08:56.576Z,1.87
2018-01-29T08:11:23.469Z,1.60
2018-01-29T08:13:50.648Z,1.90
2018-01-29T08:16:17.496Z,1.80
2018-01-29T08:18:44.435Z,2.00
2018-01-29T08:21:11.285Z,1.77
2018-01-29T08:23:38.147Z,2.03
2018-01-29T08:26:05.041Z,1.70
2018-01-29T08:28:31.904Z,1.80
2018-01-29T08:30:58.784Z,2.28
2018-01-29T08:33:25.624Z,1.80
2018-01-29T08:35:52.547Z,1.85
2018-01-29T08:38:19.433Z,1.92
2018-01-29T08:40:46.318Z,2.03
2018-01-29T08:43:13.201Z,1.85
2018-01-29T08:45:40.100Z,2.20
2018-01-29T08:48:06.997Z,2.00
2018-01-29T08:50:34.222Z,2.10
2018-01-29T08:53:01.080Z,2.67
2018-01-29T08:55:27.955Z,1.83
2018-01-29T08:57:54.807Z,2.20
2018-01-29T09:00:21.783Z,1.60
2018-01-29T09:02:48.638Z,1.83
2018-01-29T09:05:15.492Z,1.90
2018-01-29T09:07:42.354Z,1.90
2018-01-29T09:10:09.268Z,1.70
2018-01-29T09:12:36.100Z,1.98
2018-01-29T09:15:02.989Z,1.60
2018-01-29T09:17:29.907Z,1.80
2018-01-29T09:19:56.811Z,2.10
2018-01-29T09:22:23.725Z,2.00
2018-01-29T09:24:50.618Z,1.98
2018-01-29T09:27:18.126Z,1.30
2018-01-29T09:29:45.012Z,1.90
2018-01-29T09:32:11.860Z,2.00
2018-01-29T09:34:38.701Z,1.85
2018-01-29T09:37:05.617Z,1.70
2018-01-29T09:39:32.498Z,1.60
2018-01-29T09:41:59.381Z,1.87
2018-01-29T09:44:26.241Z,1.30
2018-01-29T09:46:53.142Z,1.50
2018-01-29T09:49:20.001Z,1.73
2018-01-29T09:51:46.882Z,1.65
2018-01-29T09:54:13.762Z,1.70
2018-01-29T09:56:40.649Z,2.00
2018-01-29T09:59:07.530Z,1.70
2018-01-29T10:01:34.429Z,1.83
2018-01-29T10:04:01.325Z,1.75
2018-01-29T10:06:28.228Z,1.52
2018-01-29T10:08:55.084Z,2.00
2018-01-29T10:11:21.966Z,2.20
2018-01-29T10:13:48.860Z,1.70
2018-01-29T10:16:15.746Z,1.80
2018-01-29T10:18:42.648Z,1.80
2018-01-29T10:21:09.895Z,1.90
2018-01-29T10:23:36.887Z,1.80
2018-01-29T10:26:03.789Z,1.87
2018-01-29T10:28:30.640Z,1.60
2018-01-29T10:30:57.500Z,1.92
2018-01-29T10:33:24.370Z,1.83
2018-01-29T10:35:51.546Z,2.00
2018-01-29T10:38:18.417Z,1.75
2018-01-29T10:40:45.333Z,1.80
2018-01-29T10:43:12.266Z,1.70
2018-01-29T10:45:39.170Z,1.80
2018-01-29T10:48:06.052Z,1.70
2018-01-29T10:50:32.981Z,1.70
2018-01-29T10:52:59.907Z,1.75
2018-01-29T10:55:26.755Z,1.90
2018-01-29T10:57:53.600Z,1.50
2018-01-29T11:00:20.461Z,1.80
2018-01-29T11:02:47.317Z,2.00
2018-01-29T11:05:14.176Z,1.80
2018-01-29T11:07:41.018Z,2.30
2018-01-29T11:10:07.888Z,1.95
2018-01-29T11:12:34.790Z,2.20
2018-01-29T11:15:01.690Z,2.10
2018-01-29T11:17:28.573Z,2.30
2018-01-29T11:19:55.416Z,2.00
2018-01-29T11:22:22.315Z,2.10
2018-01-29T11:24:49.210Z,2.12
2018-01-29T11:27:16.144Z,2.15
2018-01-29T11:29:43.024Z,2.17
2018-01-29T11:32:09.943Z,2.15
2018-01-29T11:34:36.826Z,2.25
2018-01-29T11:37:03.706Z,2.10
2018-01-29T11:39:30.568Z,2.47
2018-01-29T11:41:57.445Z,2.40
2018-01-29T11:44:24.333Z,2.00
2018-01-29T11:46:51.200Z,2.20
2018-01-29T11:49:18.746Z,2.30
2018-01-29T11:51:45.944Z,2.20
2018-01-29T11:54:12.853Z,2.60
2018-01-29T11:56:39.701Z,2.65
2018-01-29T11:59:06.617Z,2.80
2018-01-29T12:01:33.511Z,2.80
2018-01-29T12:04:00.376Z,3.10
2018-01-29T12:06:27.253Z,3.22
2018-01-29T12:08:54.149Z,3.60
2018-01-29T12:11:21.004Z,3.20
2018-01-29T12:13:47.876Z,3.40
2018-01-29T12:16:14.731Z,3.50
2018-01-29T12:18:42.353Z,3.70
2018-01-29T12:21:09.206Z,3.72
2018-01-29T12:23:36.061Z,3.53
2018-01-29T12:26:02.912Z,3.30
2018-01-29T12:28:29.784Z,3.20
2018-01-29T12:30:56.633Z,3.10
2018-01-29T12:33:23.473Z,2.90
2018-01-29T12:35:50.382Z,3.58
2018-01-29T12:38:17.243Z,3.12
2018-01-29T12:40:44.152Z,3.17
2018-01-29T12:43:11.008Z,2.90
2018-01-29T12:45:37.880Z,3.20
2018-01-29T12:48:04.754Z,2.90
2018-01-29T12:50:31.625Z,2.83
2018-01-29T12:52:58.488Z,3.10
2018-01-29T12:55:25.361Z,3.03
2018-01-29T12:57:52.285Z,3.15
2018-01-29T13:00:19.391Z,3.20
2018-01-29T13:02:46.240Z,2.60
2018-01-29T13:05:13.489Z,2.90
2018-01-29T13:07:40.377Z,2.53
2018-01-29T13:10:07.256Z,3.40
2018-01-29T13:12:34.165Z,2.42
2018-01-29T13:15:01.058Z,2.40
2018-01-29T13:17:27.920Z,2.95
2018-01-29T13:19:54.814Z,2.50
2018-01-29T13:22:21.694Z,2.93
2018-01-29T13:24:48.576Z,2.57
2018-01-29T13:27:15.452Z,2.60
2018-01-29T13:29:42.376Z,3.22
2018-01-29T13:32:09.319Z,2.87
2018-01-29T13:34:36.175Z,2.50
2018-01-29T13:37:03.074Z,2.47
2018-01-29T13:39:29.932Z,2.28
2018-01-29T13:41:56.792Z,2.00
2018-01-29T13:44:23.666Z,2.50
2018-01-29T13:46:50.554Z,2.12
2018-01-29T13:49:17.412Z,2.40
2018-01-29T13:51:44.289Z,2.00
2018-01-29T13:54:11.201Z,2.20
2018-01-29T13:56:38.123Z,2.10
2018-01-29T13:59:05.273Z,1.98
2018-01-29T14:01:32.164Z,2.05
2018-01-29T14:03:59.060Z,2.00
2018-01-29T14:06:25.917Z,1.87
2018-01-29T14:08:52.806Z,1.60
2018-01-29T14:11:19.996Z,1.70
2018-01-29T14:13:46.854Z,1.50
2018-01-29T14:16:13.761Z,1.70
2018-01-29T14:18:40.661Z,1.60
2018-01-29T14:21:07.558Z,1.60
2018-01-29T14:23:34.458Z,1.62
2018-01-29T14:26:01.397Z,1.40
2018-01-29T14:28:28.274Z,1.40
2018-01-29T14:30:55.137Z,1.30
2018-01-29T14:33:22.041Z,1.20
2018-01-29T14:35:48.984Z,1.40
2018-01-29T14:38:16.188Z,1.30
2018-01-29T14:40:43.098Z,1.40
2018-01-29T14:43:10.016Z,1.30
2018-01-29T14:45:36.917Z,1.25
2018-01-29T14:48:03.865Z,1.30
2018-01-29T14:50:30.782Z,1.10
2018-01-29T14:52:57.687Z,1.10
2018-01-29T14:55:25.333Z,1.20
2018-01-29T14:57:52.246Z,1.20
2018-01-29T15:00:19.134Z,1.10
2018-01-29T15:02:46.073Z,1.10
2018-01-29T15:05:12.940Z,1.10
2018-01-29T15:07:39.812Z,1.40
2018-01-29T15:10:06.685Z,1.30
2018-01-29T15:12:33.561Z,1.20
2018-01-29T15:15:00.530Z,1.20
2018-01-29T15:17:27.449Z,1.50
2018-01-29T15:19:54.342Z,1.80
2018-01-29T15:22:21.616Z,2.90
2018-01-29T15:24:48.469Z,1.40
2018-01-29T15:27:15.356Z,1.30
2018-01-29T15:29:42.561Z,1.30
2018-01-29T15:32:09.428Z,1.30
2018-01-29T15:34:36.288Z,1.20
2018-01-29T15:37:03.181Z,1.20
2018-01-29T15:39:30.341Z,1.30
2018-01-29T15:41:57.250Z,1.70
2018-01-29T15:44:24.124Z,1.98
2018-01-29T15:46:51.037Z,1.55
2018-01-29T15:49:17.893Z,1.20
2018-01-29T15:51:44.813Z,3.37
2018-01-29T15:54:11.702Z,1.33
2018-01-29T15:56:38.561Z,0.80
2018-01-29T15:59:05.399Z,0.90
2018-01-29T16:01:32.310Z,0.80
2018-01-29T16:03:59.489Z,0.70
2018-01-29T16:06:26.353Z,1.08
2018-01-29T16:08:53.213Z,1.00
2018-01-29T16:11:20.110Z,0.80
2018-01-29T16:13:46.980Z,1.60
2018-01-29T16:16:13.857Z,1.20
2018-01-29T16:18:40.740Z,2.65
2018-01-29T16:21:08.333Z,1.30
2018-01-29T16:23:35.218Z,0.77
2018-01-29T16:26:02.114Z,0.70
2018-01-29T16:28:28.970Z,0.80
2018-01-29T16:30:55.890Z,0.80
2018-01-29T16:33:22.736Z,1.50
2018-01-29T16:35:49.605Z,0.80
2018-01-29T16:38:16.477Z,0.80
2018-01-29T16:40:43.413Z,0.70
2018-01-29T16:43:10.305Z,0.80
2018-01-29T16:45:37.197Z,0.80
2018-01-29T16:48:04.092Z,1.17
2018-01-29T16:50:31.264Z,1.10
2018-01-29T16:52:58.158Z,1.12
2018-01-29T16:55:25.083Z,1.10
2018-01-29T16:57:51.956Z,1.17
2018-01-29T17:00:18.914Z,1.20
2018-01-29T17:02:45.856Z,1.42
2018-01-29T17:05:12.739Z,1.12
2018-01-29T17:07:39.620Z,0.90
2018-01-29T17:10:06.575Z,0.80
2018-01-29T17:12:33.761Z,1.00
2018-01-29T17:15:00.628Z,0.80
2018-01-29T17:17:27.752Z,0.90
2018-01-29T17:19:54.612Z,0.80
2018-01-29T17:22:21.497Z,1.00
2018-01-29T17:24:48.419Z,0.80
2018-01-29T17:27:15.330Z,0.70
2018-01-29T17:29:42.193Z,0.90
2018-01-29T17:32:09.089Z,0.70
2018-01-29T17:34:36.264Z,0.80
2018-01-29T17:37:03.173Z,0.70
2018-01-29T17:39:30.117Z,0.80
2018-01-29T17:41:57.009Z,0.80
2018-01-29T17:44:23.913Z,0.90
2018-01-29T17:46:50.809Z,1.12
2018-01-29T17:49:17.702Z,0.70
2018-01-29T17:51:44.594Z,1.00
2018-01-29T17:54:11.485Z,2.45
2018-01-29T17:56:38.364Z,1.00
2018-01-29T17:59:05.224Z,0.80
2018-01-29T18:01:32.098Z,0.88
2018-01-29T18:03:58.992Z,0.90
2018-01-29T18:06:25.886Z,0.80
2018-01-29T18:08:52.777Z,0.70
2018-01-29T18:11:19.667Z,0.80
2018-01-29T18:13:46.546Z,0.80
2018-01-29T18:16:13.404Z,1.02
2018-01-29T18:18:40.300Z,1.10
2018-01-29T18:21:07.197Z,0.90
2018-01-29T18:23:34.110Z,0.90
2018-01-29T18:26:00.999Z,0.95
2018-01-29T18:28:28.531Z,1.00
2018-01-29T18:30:55.714Z,1.10
2018-01-29T18:33:22.866Z,1.00
2018-01-29T18:35:49.965Z,1.12
2018-01-29T18:38:16.849Z,1.20
2018-01-29T18:40:43.766Z,1.62
2018-01-29T18:43:10.665Z,1.90
2018-01-29T18:45:37.523Z,1.20
2018-01-29T18:48:04.395Z,1.00
2018-01-29T18:50:31.274Z,1.87
2018-01-29T18:52:58.429Z,1.30
2018-01-29T18:55:25.297Z,1.10
2018-01-29T18:57:52.164Z,0.90
2018-01-29T19:00:19.396Z,0.90
2018-01-29T19:02:46.249Z,1.02
2018-01-29T19:05:13.151Z,1.00
2018-01-29T19:07:40.001Z,0.90
2018-01-29T19:10:06.861Z,1.40
2018-01-29T19:12:33.716Z,1.20
2018-01-29T19:15:00.584Z,1.10
2018-01-29T19:17:27.497Z,1.20
2018-01-29T19:19:54.386Z,1.13
2018-01-29T19:22:21.236Z,1.10
2018-01-29T19:24:48.109Z,1.10
2018-01-29T19:27:14.975Z,0.80
2018-01-29T19:29:41.815Z,1.00
2018-01-29T19:32:08.680Z,1.17
2018-01-29T19:34:35.536Z,2.75
2018-01-29T19:37:03.024Z,0.90
2018-01-29T19:39:29.880Z,1.00
2018-01-29T19:41:56.799Z,1.27
2018-01-29T19:44:23.667Z,1.00
2018-01-29T19:46:50.548Z,1.00
2018-01-29T19:49:17.453Z,1.00
2018-01-29T19:51:44.329Z,0.90
2018-01-29T19:54:11.209Z,1.25
2018-01-29T19:56:38.065Z,2.40
2018-01-29T19:59:05.001Z,1.00
2018-01-29T20:01:31.894Z,1.20
2018-01-29T20:03:58.876Z,1.10
2018-01-29T20:06:25.728Z,1.30
2018-01-29T20:08:52.600Z,1.80
2018-01-29T20:11:19.472Z,1.60
2018-01-29T20:13:46.377Z,1.50
2018-01-29T20:16:13.273Z,1.30
2018-01-29T20:18:40.225Z,1.20
2018-01-29T20:21:07.085Z,1.45
2018-01-29T20:23:34.057Z,1.40
2018-01-29T20:26:00.932Z,1.70
2018-01-29T20:28:27.871Z,1.70
2018-01-29T20:30:54.758Z,1.50
2018-01-29T20:33:21.652Z,1.77
2018-01-29T20:35:48.589Z,1.60
2018-01-29T20:38:15.442Z,1.95
2018-01-29T20:40:42.346Z,2.10
2018-01-29T20:43:09.194Z,3.72
2018-01-29T20:45:36.100Z,3.65
2018-01-29T20:48:02.965Z,3.28
2018-01-29T20:50:29.921Z,1.70
2018-01-29T20:52:57.119Z,1.87
2018-01-29T20:55:23.983Z,2.25
2018-01-29T20:57:50.848Z,1.50
2018-01-29T21:00:17.737Z,1.70
2018-01-29T21:02:44.597Z,1.50
2018-01-29T21:05:11.506Z,1.60
2018-01-29T21:07:38.372Z,2.00
2018-01-29T21:10:05.230Z,2.40
2018-01-29T21:12:32.080Z,2.33
2018-01-29T21:14:58.979Z,2.10
2018-01-29T21:17:25.832Z,1.90
2018-01-29T21:19:52.717Z,2.10
2018-01-29T21:22:19.573Z,2.30
2018-01-29T21:24:46.462Z,2.33
2018-01-29T21:27:13.312Z,2.37
2018-01-29T21:29:40.197Z,2.50
2018-01-29T21:32:07.060Z,2.45
2018-01-29T21:34:33.916Z,1.98
2018-01-29T21:37:00.797Z,2.42
2018-01-29T21:39:27.692Z,2.37
2018-01-29T21:41:54.585Z,2.87
2018-01-29T21:44:21.444Z,2.65
2018-01-29T21:46:48.297Z,2.72
2018-01-29T21:49:15.190Z,3.22
2018-01-29T21:51:42.087Z,2.60
2018-01-29T21:54:08.953Z,2.87
2018-01-29T21:56:35.829Z,3.08
2018-01-29T21:59:02.688Z,3.53
2018-01-29T22:01:29.552Z,2.40
2018-01-29T22:03:56.427Z,2.40
2018-01-29T22:06:23.284Z,2.90
2018-01-29T22:08:50.136Z,2.10
2018-01-29T22:11:17.038Z,2.47
2018-01-29T22:13:43.934Z,2.20
2018-01-29T22:16:10.880Z,2.70
2018-01-29T22:18:37.748Z,2.17
2018-01-29T22:21:04.596Z,2.55
2018-01-29T22:23:31.477Z,3.03
2018-01-29T22:25:58.361Z,2.55
2018-01-29T22:28:25.232Z,2.30
2018-01-29T22:30:52.080Z,2.22
2018-01-29T22:33:18.983Z,2.85
2018-01-29T22:35:45.833Z,2.83
2018-01-29T22:38:12.678Z,2.93
2018-01-29T22:40:39.563Z,3.03
2018-01-29T22:43:06.454Z,2.00
2018-01-29T22:45:33.344Z,2.70
2018-01-29T22:48:00.269Z,2.25
2018-01-29T22:50:27.139Z,2.70
2018-01-29T22:52:54.022Z,2.90
2018-01-29T22:55:20.904Z,2.60
2018-01-29T22:57:47.760Z,3.40
2018-01-29T23:00:16.687Z,2.65
2018-01-29T23:02:43.624Z,3.20
2018-01-29T23:05:10.610Z,3.05
2018-01-29T23:07:37.452Z,3.10
2018-01-29T23:10:04.362Z,3.20
2018-01-29T23:12:31.261Z,2.85
2018-01-29T23:14:58.118Z,3.20
2018-01-29T23:17:25.049Z,2.80
2018-01-29T23:19:51.931Z,2.70
2018-01-29T23:22:18.805Z,3.40
2018-01-29T23:24:45.660Z,3.30
2018-01-29T23:27:12.520Z,3.15
2018-01-29T23:29:39.453Z,3.10
2018-01-29T23:32:06.345Z,2.62
2018-01-29T23:34:33.241Z,2.95
2018-01-29T23:37:00.112Z,3.17
2018-01-29T23:39:26.976Z,2.67
2018-01-29T23:41:53.815Z,2.97
2018-01-29T23:44:20.734Z,3.10
2018-01-29T23:46:47.625Z,3.03
2018-01-29T23:49:14.472Z,3.10
2018-01-29T23:51:41.358Z,3.17
2018-01-29T23:54:08.241Z,3.00
2018-01-29T23:56:35.117Z,2.53
2018-01-29T23:59:01.997Z,2.72
